EW8845 Weather Reports


time (UTC)temp
C
wind
direction
speed
KPH
gust
KPH
rain 1hr
cm
rain 24hr
cm
rain mn
cm
humidity
%
barometer
mb
20200217001503 8 213 12.9 32.2 0.00 0.71 0.00 88 1000.8
20200217000211 8 185 12.9 33.8 0.00 0.71 0.00 88 1000.6
20200216234510 8 183 12.9 40.2 0.00 0.71 0.00 88 1000.7
20200216233112 8 226 9.7 32.2 0.00 0.71 0.00 88 1000.5
20200216231524 8 222 12.9 29.0 0.00 0.71 0.00 88 1000.3
20200216230243 8 202 16.1 32.2 0.00 0.71 0.00 89 999.9
20200216224625 8 215 16.1 27.4 0.00 0.71 0.71 89 999.3
20200216223019 8 224 16.1 35.4 0.00 0.71 0.71 90 999.1
20200216221739 8 223 11.3 27.4 0.00 0.71 0.71 90 999.0
20200216220111 8 200 11.3 25.7 0.00 0.71 0.71 91 999.1
20200216214852 8 200 14.5 32.2 0.00 0.71 0.71 91 998.4
20200216213043 8 190 12.9 38.6 0.03 0.71 0.71 92 998.1
20200216211540 8 202 17.7 37.0 0.05 0.71 0.71 92 998.1
20200216210113 8 220 14.5 33.8 0.08 0.71 0.71 93 998.2
20200216204612 8 209 17.7 33.8 0.15 0.71 0.71 92 997.4
20200216203341 8 202 16.1 32.2 0.18 0.69 0.69 92 997.2
20200216201548 8 257 9.7 19.3 0.20 0.66 0.66 92 997.0
20200216200015 8 240 11.3 30.6 0.18 0.61 0.61 91 997.0
20200216194629 9 243 9.7 30.6 0.23 0.56 0.56 91 997.1
20200216193019 9 270 9.7 38.6 0.30 0.51 0.51 90 996.8
20200216191649 10 254 9.7 25.7 0.43 0.46 0.46 90 996.2
20200216190027 10 263 14.5 27.4 0.38 0.43 0.43 87 995.4
20200216184823 11 288 8.0 33.8 0.30 0.33 0.33 84 994.7
20200216183059 13 250 14.5 43.5 0.15 0.20 0.20 76 993.8
20200216181519 17 229 27.4 59.5 0.00 0.05 0.05 67 991.4
20200216180102 16 197 19.3 49.9 0.00 0.05 0.05 68 990.2
20200216174527 16 192 29.0 51.5 0.00 0.05 0.05 69 990.1
20200216173130 16 193 24.1 56.3 0.00 0.05 0.05 70 990.5
20200216171547 16 216 25.7 53.1 0.00 0.05 0.05 70 990.4
20200216170006 16 185 20.9 56.3 0.00 0.05 0.05 70 991.0
20200216164615 16 203 25.7 51.5 0.00 0.05 0.05 71 991.4
20200216163015 16 151 25.7 53.1 0.00 0.05 0.05 71 991.7
20200216161634 16 221 24.1 53.1 0.00 0.05 0.05 72 992.0
20200216160044 16 195 24.1 43.5 0.00 0.05 0.05 72 992.6
20200216154637 16 205 22.5 43.5 0.00 0.05 0.05 72 993.2
20200216153040 15 173 22.5 41.8 0.00 0.05 0.05 72 993.4
20200216150047 15 234 22.5 35.4 0.00 0.05 0.05 72 994.1
20200216144513 15 161 19.3 35.4 0.03 0.05 0.05 72 994.1
20200216143213 15 182 22.5 45.1 0.03 0.05 0.05 71 994.8
20200216141531 15 208 19.3 41.8 0.03 0.05 0.05 72 994.9
20200216140153 15 256 14.5 43.5 0.03 0.05 0.05 71 995.0
20200216134633 15 207 17.7 35.4 0.00 0.03 0.03 72 995.4
20200216133006 15 161 19.3 38.6 0.00 0.03 0.03 73 995.3
20200216131559 15 192 25.7 51.5 0.00 0.03 0.03 73 995.7
20200216130042 15 196 17.7 46.7 0.00 0.03 0.03 73 995.9
20200216124609 15 182 24.1 41.8 0.00 0.03 0.03 73 996.0
20200216123054 15 173 24.1 49.9 0.00 0.03 0.03 73 996.2
20200216121503 15 267 12.9 45.1 0.00 0.03 0.03 74 996.3
20200216120101 15 196 20.9 49.9 0.00 0.03 0.03 74 996.4
20200216114513 15 202 17.7 40.2 0.00 0.03 0.03 75 996.6
20200216113124 15 220 19.3 35.4 0.00 0.03 0.03 77 996.7
20200216111708 14 221 17.7 40.2 0.00 0.03 0.03 79 996.8
20200216110256 13 212 19.3 45.1 0.00 0.03 0.03 82 996.9
20200216104538 12 175 22.5 43.5 0.00 0.03 0.03 87 997.1
20200216103008 12 259 14.5 41.8 0.00 0.03 0.03 89 997.4
20200216101613 12 190 20.9 35.4 0.00 0.03 0.03 89 997.5
20200216100021 12 191 16.1 43.5 0.00 0.03 0.03 89 997.5
20200216094640 12 211 17.7 40.2 0.00 0.03 0.03 87 997.6
20200216093058 12 172 20.9 48.3 0.00 0.03 0.03 86 997.7
20200216090118 12 236 19.3 46.7 0.00 0.03 0.03 86 997.8
20200216084522 12 203 22.5 43.5 0.00 0.03 0.03 87 997.8
20200216083349 12 201 17.7 38.6 0.00 0.03 0.03 87 998.0
20200216081633 12 240 25.7 48.3 0.00 0.03 0.03 87 998.3
20200216080009 12 238 19.3 53.1 0.00 0.03 0.03 87 998.4
20200216074745 12 194 25.7 46.7 0.00 0.03 0.03 87 998.5
20200216073041 12 213 19.3 40.2 0.03 0.03 0.03 88 998.8
20200216071722 12 185 12.9 40.2 0.03 0.03 0.03 89 998.8
20200216070120 11 188 19.3 35.4 0.03 0.03 0.03 89 998.7
20200216064507 11 186 17.7 46.7 0.03 0.03 0.03 88 998.6
20200216063109 11 217 17.7 35.4 0.00 0.00 0.00 86 998.7
20200216061542 12 194 16.1 43.5 0.00 0.00 0.00 83 999.3
20200216060157 12 191 16.1 38.6 0.00 0.00 0.00 80 999.6
20200216054548 13 135 20.9 38.6 0.00 0.00 0.00 77 1000.0
20200216053138 13 189 17.7 33.8 0.00 0.00 0.00 76 1000.3
20200216051620 13 197 20.9 41.8 0.00 0.00 0.00 76 1000.5
20200216050018 13 182 14.5 38.6 0.00 0.00 0.00 76 1000.7
20200216044619 12 185 12.9 33.8 0.00 0.00 0.00 76 1000.7
20200216043030 12 193 11.3 33.8 0.00 0.00 0.00 76 1000.6
20200216041708 12 145 14.5 29.0 0.00 0.00 0.00 76 1000.7
20200216040117 12 180 19.3 38.6 0.00 0.00 0.00 76 1001.0
20200216034510 12 157 16.1 35.4 0.00 0.00 0.00 76 1001.3
20200216033140 12 166 14.5 43.5 0.00 0.00 0.00 75 1001.5
20200216031610 12 191 19.3 37.0 0.00 0.00 0.00 75 1002.0
20200216030137 12 206 9.7 32.2 0.00 0.00 0.00 75 1002.2
20200216024559 12 175 12.9 35.4 0.00 0.00 0.00 75 1002.5
20200216023004 12 92 12.9 35.4 0.00 0.00 0.00 74 1002.4
20200216021626 12 238 16.1 32.2 0.00 0.00 0.00 74 1002.7
20200216020018 12 206 20.9 45.1 0.00 0.00 0.00 73 1002.9
20200216014622 12 211 16.1 30.6 0.00 0.00 0.00 73 1002.7
20200216013108 12 220 19.3 32.2 0.00 0.00 0.00 73 1002.7
20200216011800 12 183 16.1 35.4 0.00 0.00 0.00 73 1003.0
20200216010058 12 187 12.9 33.8 0.00 0.00 0.00 73 1003.2
20200216004505 11 154 12.9 29.0 0.00 0.00 0.00 73 1003.4
20200216003108 11 172 16.1 41.8 0.00 0.00 0.00 72 1003.5